Terminal Aerodrome Forecast
Issued by NWS

Home | Current Version | Previous Version | Text Only | Print | Product List | Glossary On
Versions: 1 2 3 4 5 6 7 8 9 10 11 12 13 14 15 16 17 18 19
000
FTAK31 PANC 161140
TAFAAQ
TAF
PAAQ 161140Z 1612/1712 VRB03KT 2SM -SN BR SCT015 OVC025
     FM161800 VRB03KT 1SM -SN BR SCT008 OVC015
     FM162200 VRB03KT 1/2SM SN FG SCT003 BKN008 OVC015
     FM170400 VRB05KT 2SM -SHSN BR SCT008 OVC015
     FM170900 VRB03KT 4SM -SHSN BR SCT015 OVC025=

USA.gov is the U.S. government's official web portal to all federal, state and local government web resources and services.